Meteorología y climatología de Navarra
Datos de la estación - Meteo Navarra

Estación de Doneztebe-Santesteban GN

Altitud 125 m.


Datos desde el 16/09/2020 hasta el 17/09/2020 en horario solar
Los datos son PROVISIONALES

Anterior Página 1 de 1 Siguiente Descargar: Formato para Excel 2000 o superior   Formato csv   Formato para OpenOffice Calc
Fecha Temperatura Humedad relativa Radiación global Insolación Precipitación Vel. viento 10 m Vel. viento 10 m Dir. viento 10 m
ºC % W/m² s l/m² m/s km/h º
16/09/2020 0:00 16.5 97 0.0 0 0.0 0.0 0.0 0
16/09/2020 0:10 16.3 97 0.0 0 0.0 0.1 0.4 216
16/09/2020 0:20 16.3 98 0.0 0 0.0 0.3 0.9 333
16/09/2020 0:30 16.2 98 0.0 0 0.0 0.1 0.4 120
16/09/2020 0:40 16.0 97 0.0 0 0.0 0.5 1.8 132
16/09/2020 0:50 15.9 98 0.0 0 0.0 0.0 0.1 177
16/09/2020 1:00 15.8 98 0.0 0 0.0 0.0 0.0 0
16/09/2020 1:10 15.7 98 0.0 0 0.0 0.1 0.2 207
16/09/2020 1:20 15.7 98 0.0 0 0.0 0.1 0.5 214
16/09/2020 1:30 15.5 98 0.0 0 0.0 0.4 1.3 134
16/09/2020 1:40 15.5 98 0.0 0 0.0 0.2 0.7 240
16/09/2020 1:50 15.5 98 0.0 0 0.0 0.0 0.0 0
16/09/2020 2:00 15.3 98 0.0 0 0.0 0.1 0.2 229
16/09/2020 2:10 15.3 98 0.0 0 0.0 0.0 0.0 0
16/09/2020 2:20 15.1 98 0.0 0 0.0 0.0 0.0 0
16/09/2020 2:30 15.0 98 0.0 0 0.0 0.0 0.0 0
16/09/2020 2:40 15.0 98 0.0 0 0.0 0.0 0.0 0
16/09/2020 2:50 15.0 98 0.0 0 0.0 0.0 0.0 0
16/09/2020 3:00 14.9 98 0.0 0 0.0 0.0 0.0 0
16/09/2020 3:10 14.7 98 0.0 0 0.0 0.1 0.2 133
16/09/2020 3:20 14.7 98 0.0 0 0.0 0.0 0.0 0
16/09/2020 3:30 14.7 98 0.0 0 0.0 0.0 0.0 0
16/09/2020 3:40 14.6 98 0.0 0 0.0 0.0 0.0 0
16/09/2020 3:50 14.4 98 0.0 0 0.0 0.0 0.0 0
16/09/2020 4:00 14.5 98 0.0 0 0.0 0.0 0.0 0
16/09/2020 4:10 14.4 98 0.0 0 0.0 0.0 0.0 0
16/09/2020 4:20 14.4 98 0.0 0 0.0 0.0 0.0 133
16/09/2020 4:30 14.3 98 0.0 0 0.0 0.0 0.0 133
16/09/2020 4:40 14.3 98 0.0 0 0.0 0.0 0.0 133
16/09/2020 4:50 14.2 99 0.0 0 0.0 0.0 0.0 133
16/09/2020 5:00 14.3 99 0.0 0 0.0 0.0 0.0 133
16/09/2020 5:10 14.2 99 0.0 0 0.0 0.0 0.0 132
16/09/2020 5:20 14.2 99 0.0 0 0.0 0.0 0.0 133
16/09/2020 5:30 14.1 99 0.0 0 0.0 0.0 0.0 133
16/09/2020 5:40 14.0 98 0.0 0 0.0 0.0 0.0 133
16/09/2020 5:50 14.0 98 0.0 0 0.0 0.0 0.0 133
16/09/2020 6:00 14.0 99 3.4 0 0.0 0.0 0.0 133
16/09/2020 6:10 14.2 99 24.4 0 0.0 0.0 0.0 133
16/09/2020 6:20 14.2 99 35.4 210 0.0 0.0 0.0 133
16/09/2020 6:30 14.5 99 43.6 0 0.0 0.0 0.0 45
16/09/2020 6:40 14.6 99 59.0 0 0.0 0.0 0.0 127
16/09/2020 6:50 14.8 99 93.6 384 0.0 0.0 0.1 123
16/09/2020 7:00 15.1 99 139.4 600 0.0 0.2 0.5 117
16/09/2020 7:10 15.5 99 162.7 600 0.0 0.4 1.3 121
16/09/2020 7:20 15.5 99 215.1 600 0.0 0.1 0.3 89
16/09/2020 7:30 15.8 99 245.4 600 0.0 0.2 0.8 121
16/09/2020 7:40 16.3 99 276.6 600 0.0 0.5 1.7 119
16/09/2020 7:50 16.5 98 295.6 600 0.0 0.6 2.1 132
16/09/2020 8:00 16.9 96 299.3 600 0.0 0.5 1.9 138
16/09/2020 8:10 17.4 95 336.9 600 0.0 0.6 2.3 116
16/09/2020 8:20 18.0 91 349.5 600 0.0 0.2 0.5 135
16/09/2020 8:30 18.8 86 391.3 600 0.0 0.5 1.7 164
16/09/2020 8:40 19.4 83 398.2 600 0.0 0.3 0.9 200
16/09/2020 8:50 20.2 81 408.4 600 0.0 0.4 1.4 117
16/09/2020 9:00 21.0 76 448.3 600 0.0 0.2 0.7 120
16/09/2020 9:10 21.3 76 522.1 600 0.0 0.3 0.9 289
16/09/2020 9:20 22.0 74 557.0 600 0.0 0.4 1.3 110
16/09/2020 9:30 22.7 70 561.7 600 0.0 0.5 1.7 180
16/09/2020 9:40 23.1 67 497.6 600 0.0 0.2 0.6 56
16/09/2020 9:50 23.2 68 468.6 600 0.0 0.1 0.4 238
16/09/2020 10:00 23.8 68 546.7 600 0.0 0.3 0.9 175
16/09/2020 10:10 25.4 64 648.3 600 0.0 0.3 1.0 146
16/09/2020 10:20 26.6 59 662.9 600 0.0 0.4 1.3 125
16/09/2020 10:30 26.6 58 670.7 600 0.0 0.7 2.4 189
16/09/2020 10:40 26.8 58 684.1 600 0.0 0.7 2.5 163
16/09/2020 10:50 27.8 57 694.9 600 0.0 0.6 2.1 162
16/09/2020 11:00 28.6 53 705.7 600 0.0 0.6 2.1 169
16/09/2020 11:10 29.0 53 714.3 600 0.0 0.6 2.0 170
16/09/2020 11:20 30.1 48 723.8 600 0.0 0.9 3.3 144
16/09/2020 11:30 30.2 48 728.9 600 0.0 1.0 3.6 156
16/09/2020 11:40 31.0 45 732.7 600 0.0 0.6 2.3 154
16/09/2020 11:50 31.3 42 734.7 600 0.0 0.9 3.1 163
16/09/2020 12:00 31.5 40 737.2 600 0.0 0.6 2.2 190
16/09/2020 12:10 32.0 39 737.0 600 0.0 0.6 2.3 122
16/09/2020 12:20 32.9 39 737.1 600 0.0 0.7 2.6 140
16/09/2020 12:30 32.6 37 735.6 600 0.0 1.3 4.5 37
16/09/2020 12:40 31.9 38 729.3 600 0.0 1.9 6.9 353
16/09/2020 12:50 31.9 41 722.5 600 0.0 1.6 5.7 112
16/09/2020 13:00 31.6 41 716.4 600 0.0 3.0 10.8 345
16/09/2020 13:10 31.4 44 713.0 600 0.0 3.2 11.7 344
16/09/2020 13:20 31.4 45 686.4 600 0.0 2.7 9.8 345
16/09/2020 13:30 31.5 45 671.4 600 0.0 3.0 10.9 346
16/09/2020 13:40 31.2 44 644.1 600 0.0 3.2 11.4 347
16/09/2020 13:50 31.4 44 631.9 600 0.0 2.3 8.2 346
16/09/2020 14:00 31.4 44 614.6 600 0.0 2.7 9.5 349
16/09/2020 14:10 31.4 43 592.3 600 0.0 3.0 10.9 338
16/09/2020 14:20 31.3 43 561.7 600 0.0 2.8 10.0 9
16/09/2020 14:30 31.4 44 546.8 600 0.0 2.5 9.0 4
16/09/2020 14:40 31.6 45 548.7 600 0.0 2.1 7.5 27
16/09/2020 14:50 31.8 44 526.8 600 0.0 2.1 7.6 28
16/09/2020 15:00 31.9 43 497.5 600 0.0 2.2 7.8 37
16/09/2020 15:10 31.4 44 460.2 600 0.0 2.2 8.0 352
16/09/2020 15:20 31.4 44 406.2 600 0.0 1.8 6.4 20
16/09/2020 15:30 32.1 43 391.5 600 0.0 1.0 3.7 101
16/09/2020 15:40 31.7 42 193.3 100 0.0 1.6 5.8 16
16/09/2020 15:50 30.7 46 139.5 0 0.0 1.7 5.9 27
16/09/2020 16:00 30.5 46 235.5 478 0.0 1.7 6.0 32
16/09/2020 16:10 30.5 48 283.8 600 0.0 1.8 6.5 12
16/09/2020 16:20 30.4 49 267.1 584 0.0 2.1 7.7 357
16/09/2020 16:30 29.9 52 167.6 126 0.0 1.7 6.1 344
16/09/2020 16:40 29.4 55 163.5 512 0.0 3.3 11.9 5
16/09/2020 16:50 29.0 57 113.5 0 0.0 2.2 7.7 346
16/09/2020 17:00 28.5 59 114.6 146 0.0 1.1 4.1 342
16/09/2020 17:10 28.1 62 118.7 600 0.0 2.4 8.6 330
16/09/2020 17:20 27.9 63 109.7 600 0.0 3.0 10.8 6
16/09/2020 17:30 27.4 64 81.2 588 0.0 3.1 11.1 345
16/09/2020 17:40 26.7 65 47.8 10 0.0 2.8 10.2 340
16/09/2020 17:50 26.3 66 32.2 0 0.0 2.9 10.5 350
16/09/2020 18:00 26.0 65 13.6 0 0.0 3.7 13.2 357
16/09/2020 18:10 25.9 64 0.0 0 0.0 3.9 13.9 15
16/09/2020 18:20 25.6 64 0.0 0 0.0 3.6 13.1 11
16/09/2020 18:30 25.1 66 0.0 0 0.0 1.6 5.6 318
16/09/2020 18:40 24.2 71 0.0 0 0.0 1.9 6.7 302
16/09/2020 18:50 24.2 71 0.0 0 0.0 1.6 5.7 313
16/09/2020 19:00 23.7 73 0.0 0 0.0 1.0 3.7 284
16/09/2020 19:10 23.3 75 0.0 0 0.0 0.8 3.0 310
16/09/2020 19:20 22.5 79 0.0 0 0.0 0.1 0.3 39
16/09/2020 19:30 21.7 82 0.0 0 0.0 0.2 0.6 12
16/09/2020 19:40 21.2 85 0.0 0 0.0 0.4 1.6 169
16/09/2020 19:50 20.9 87 0.0 0 0.0 0.4 1.5 148
16/09/2020 20:00 20.6 88 0.0 0 0.0 0.1 0.2 247
16/09/2020 20:10 20.4 89 0.0 0 0.0 0.0 0.1 238
16/09/2020 20:20 20.2 90 0.0 0 0.0 0.1 0.3 238
16/09/2020 20:30 19.8 92 0.0 0 0.0 0.0 0.0 267
16/09/2020 20:40 19.7 92 0.0 0 0.0 0.0 0.1 167
16/09/2020 20:50 19.4 93 0.0 0 0.0 0.2 0.6 143
16/09/2020 21:00 19.2 94 0.0 0 0.0 0.0 0.0 0
16/09/2020 21:10 19.0 94 0.0 0 0.0 0.2 0.6 145
16/09/2020 21:20 18.9 94 0.0 0 0.0 0.0 0.1 120
16/09/2020 21:30 18.7 94 0.0 0 0.0 0.4 1.3 170
16/09/2020 21:40 18.5 95 0.0 0 0.0 0.0 0.0 0
16/09/2020 21:50 18.4 96 0.0 0 0.0 0.0 0.0 206
16/09/2020 22:00 18.3 96 0.0 0 0.0 0.0 0.1 205
16/09/2020 22:10 18.2 96 0.0 0 0.0 0.0 0.0 0
16/09/2020 22:20 18.0 96 0.0 0 0.0 0.4 1.3 145
16/09/2020 22:30 17.8 96 0.0 0 0.0 0.2 0.8 165
16/09/2020 22:40 17.7 97 0.0 0 0.0 0.0 0.0 0
16/09/2020 22:50 17.6 97 0.0 0 0.0 0.2 0.8 325
16/09/2020 23:00 17.4 97 0.0 0 0.0 0.1 0.3 2
16/09/2020 23:10 17.4 97 0.0 0 0.0 0.1 0.3 192
16/09/2020 23:20 17.2 97 0.0 0 0.0 0.1 0.2 219
16/09/2020 23:30 17.2 98 0.0 0 0.0 0.3 1.0 180
16/09/2020 23:40 17.1 98 0.0 0 0.0 0.0 0.0 174
16/09/2020 23:50 17.0 98 0.0 0 0.0 0.2 0.7 178
Anterior Página 1 de 1 Siguiente

NOTA: Tipo de datos según el color:
   - Valores diarios o 10 minutos correctos
   - Valores diarios calculados a partir de un número de datos 10 minutos menor que 144 y mayor que 120, o de un número de datos semihorarios menor que 48 y mayor que 40 (caso de las estaciones de INTIA y del Ministerio)
   - Valores diez minutos estimados


Contacto        Enlaces        Aviso legal